Portada
METAR-TAF:

METAR-TAF

Aeroports :

Kulu / Manali, Índia

latitud: 31-52-36N, longitud: 77-09-16E, altitud: 1089 m

Observació

L'informe es va fer fa 38 minuts, a les 04:00 UTC
Vent calma
Temperatura 11°C
Humitat 62%
Pressió 1021 hPa
Visibilitat: 6000 m
Núvols disperses a una alçada de 3000 ft

METAR: VIBR 230400Z 00000KT 6000 SCT030 11/04 Q1021

Hora: 10:08 (04:38 UTC)

Pronòstic

L'informe es va fer fa 23 hores i 38 minuts, a les 05:00 UTC
Pronòstic vàlid del 22 a les 06 UTC al 22 a les 15 UTC
Vent 2 kt amb direcció variable
Visibilitat: 5000 m
Escasses núvols a una alçada de 3000 ft
Núvols disperses a una alçada de 10000 ft
calitja

TAF: VIBR 220500Z 2206/2215 VRB02KT 5000 HZ FEW030 SCT100

Observacions i pronòstics meteorològics de més de 4000 aeroports (METAR i TAF).

Les estacions disponibles són els punts grocs i vermells al mapa.

Posi el ratolí al punt desitjat per veure el nom de l'estació.

Feu clic per veure les observacions i els pronòstics meteorològics.

Per canviar el mapa: feu clic els botons verds amb una creu de color negre per apropar; al botó verd amb un guió per allunyar la imatge; o en les fletxes verdes per a mapes adjacents.


METAR-TAF: